createdAt,value
2022-10-14T00:01:23.335Z,19.10
2022-10-14T00:04:10.732Z,19.10
2022-10-14T00:06:59.536Z,19.10
2022-10-14T00:09:47.336Z,19.10
2022-10-14T00:12:35.589Z,19.10
2022-10-14T00:15:23.236Z,19.10
2022-10-14T00:18:11.191Z,19.10
2022-10-14T00:20:59.826Z,19.10
2022-10-14T00:23:48.874Z,19.10
2022-10-14T00:26:38.858Z,19.10
2022-10-14T00:29:26.276Z,19.10
2022-10-14T00:32:13.541Z,19.10
2022-10-14T00:35:00.940Z,19.10
2022-10-14T00:37:50.388Z,19.10
2022-10-14T00:40:39.670Z,19.10
2022-10-14T00:43:29.016Z,19.10
2022-10-14T00:46:16.307Z,19.10
2022-10-14T00:49:10.497Z,19.10
2022-10-14T00:52:02.508Z,19.10
2022-10-14T00:54:55.632Z,19.10
2022-10-14T00:57:45.390Z,19.10
2022-10-14T01:00:33.091Z,19.10
2022-10-14T01:03:24.393Z,19.10
2022-10-14T01:06:23.887Z,19.10
2022-10-14T01:09:25.354Z,19.10
2022-10-14T01:12:29.041Z,19.00
2022-10-14T01:15:30.189Z,19.00
2022-10-14T01:18:29.832Z,19.00
2022-10-14T01:21:28.825Z,19.00
2022-10-14T01:24:42.880Z,19.00
2022-10-14T01:28:13.492Z,19.00
2022-10-14T01:31:06.256Z,19.00
2022-10-14T01:33:58.150Z,19.00
2022-10-14T01:36:50.532Z,19.00
2022-10-14T01:39:44.028Z,19.00
2022-10-14T01:42:36.412Z,19.00
2022-10-14T01:45:26.941Z,18.90
2022-10-14T01:48:19.427Z,19.00
2022-10-14T01:51:13.819Z,18.90
2022-10-14T01:54:08.156Z,18.90
2022-10-14T01:57:00.608Z,18.90
2022-10-14T01:59:49.491Z,18.90
2022-10-14T02:02:39.122Z,18.90
2022-10-14T02:05:33.270Z,18.90
2022-10-14T02:08:34.303Z,18.90
2022-10-14T02:11:24.712Z,18.90
2022-10-14T02:14:29.645Z,19.00
2022-10-14T02:17:24.464Z,18.90
2022-10-14T02:20:22.705Z,18.90
2022-10-14T02:23:16.762Z,18.90
2022-10-14T02:26:05.384Z,18.90
2022-10-14T02:28:56.571Z,18.90
2022-10-14T02:31:46.862Z,18.90
2022-10-14T02:34:35.835Z,18.90
2022-10-14T02:37:24.676Z,18.90
2022-10-14T02:40:20.212Z,18.90
2022-10-14T02:43:10.007Z,18.90
2022-10-14T02:46:01.128Z,18.90
2022-10-14T02:48:48.516Z,18.90
2022-10-14T02:51:36.031Z,18.80
2022-10-14T02:54:23.561Z,18.80
2022-10-14T02:57:12.407Z,18.80
2022-10-14T02:59:59.901Z,18.80
2022-10-14T03:02:48.475Z,18.80
2022-10-14T03:05:38.642Z,18.80
2022-10-14T03:08:32.076Z,18.80
2022-10-14T03:11:21.874Z,18.80
2022-10-14T03:14:12.289Z,18.80
2022-10-14T03:16:59.967Z,18.80
2022-10-14T03:19:50.725Z,18.80
2022-10-14T03:22:37.983Z,18.80
2022-10-14T03:25:28.006Z,18.80
2022-10-14T03:28:28.512Z,18.80
2022-10-14T03:31:25.958Z,18.80
2022-10-14T03:34:39.437Z,18.90
2022-10-14T03:37:34.680Z,18.90
2022-10-14T03:40:23.222Z,18.90
2022-10-14T03:43:11.675Z,18.90
2022-10-14T03:46:08.116Z,18.90
2022-10-14T03:48:58.327Z,18.90
2022-10-14T03:51:45.782Z,18.90
2022-10-14T03:54:39.660Z,18.90
2022-10-14T03:57:27.192Z,18.90
2022-10-14T04:00:18.226Z,18.90
2022-10-14T04:03:11.298Z,18.90
2022-10-14T04:06:02.238Z,18.90
2022-10-14T04:08:51.017Z,18.90
2022-10-14T04:11:48.555Z,18.90
2022-10-14T04:14:57.020Z,19.00
2022-10-14T04:17:45.345Z,19.00
2022-10-14T04:20:35.099Z,18.90
2022-10-14T04:23:24.831Z,19.00
2022-10-14T04:26:16.853Z,18.90
2022-10-14T04:29:06.379Z,18.90
2022-10-14T04:32:01.786Z,18.90
2022-10-14T04:34:50.089Z,18.90
2022-10-14T04:37:40.857Z,18.90
2022-10-14T04:40:47.968Z,18.90
2022-10-14T04:43:35.649Z,18.90
2022-10-14T04:46:38.135Z,18.90
2022-10-14T04:49:25.992Z,18.90
2022-10-14T04:52:28.144Z,18.90
2022-10-14T04:55:25.782Z,18.90
2022-10-14T04:58:14.742Z,18.90
2022-10-14T05:01:04.202Z,18.90
2022-10-14T05:03:58.525Z,18.90
2022-10-14T05:06:46.597Z,18.90
2022-10-14T05:09:36.122Z,18.90
2022-10-14T05:12:26.530Z,18.90
2022-10-14T05:15:21.653Z,19.00
2022-10-14T05:18:22.110Z,18.90
2022-10-14T05:21:30.809Z,18.90
2022-10-14T05:24:34.347Z,18.90
2022-10-14T05:27:22.849Z,19.00
2022-10-14T05:30:13.959Z,19.00
2022-10-14T05:33:08.194Z,19.00
2022-10-14T05:35:59.428Z,19.00
2022-10-14T05:38:51.711Z,19.00
2022-10-14T05:41:42.798Z,18.90
2022-10-14T05:44:31.022Z,19.00
2022-10-14T05:47:19.280Z,19.00
2022-10-14T05:50:11.334Z,19.00
2022-10-14T05:52:58.479Z,19.00
2022-10-14T05:55:51.972Z,19.00
2022-10-14T05:58:42.885Z,19.00
2022-10-14T06:01:31.428Z,19.00
2022-10-14T06:04:00.362Z,19.00
2022-10-14T06:06:31.064Z,19.00
2022-10-14T06:09:00.127Z,19.00
2022-10-14T06:11:29.182Z,19.00
2022-10-14T06:13:58.167Z,19.00
2022-10-14T06:16:27.368Z,19.00
2022-10-14T06:18:56.439Z,19.00
2022-10-14T06:21:26.180Z,19.00
2022-10-14T06:23:56.680Z,19.00
2022-10-14T06:26:25.710Z,19.00
2022-10-14T06:28:54.977Z,19.00
2022-10-14T06:31:27.435Z,19.00
2022-10-14T06:33:59.003Z,19.00
2022-10-14T06:36:28.093Z,19.00
2022-10-14T06:38:58.629Z,19.00
2022-10-14T06:41:27.982Z,19.00
2022-10-14T06:43:57.132Z,19.00
2022-10-14T06:46:26.468Z,19.10
2022-10-14T06:48:55.473Z,19.10
2022-10-14T06:51:24.498Z,19.10
2022-10-14T06:53:53.603Z,19.10
2022-10-14T06:56:24.071Z,19.10
2022-10-14T06:58:55.532Z,19.10
2022-10-14T07:01:24.923Z,19.10
2022-10-14T07:03:56.597Z,19.10
2022-10-14T07:06:26.160Z,19.10
2022-10-14T07:08:55.146Z,19.10
2022-10-14T07:11:25.494Z,19.10
2022-10-14T07:13:54.497Z,19.10
2022-10-14T07:16:23.646Z,19.10
2022-10-14T07:18:52.769Z,19.10
2022-10-14T07:21:24.705Z,19.10
2022-10-14T07:23:55.725Z,19.10
2022-10-14T07:26:27.004Z,19.20
2022-10-14T07:28:57.048Z,19.20
2022-10-14T07:31:27.816Z,19.20
2022-10-14T07:33:57.777Z,19.20
2022-10-14T07:36:27.698Z,19.20
2022-10-14T07:38:57.636Z,19.20
2022-10-14T07:41:29.326Z,19.20
2022-10-14T07:44:05.408Z,19.20
2022-10-14T07:46:38.782Z,19.20
2022-10-14T07:49:11.933Z,19.20
2022-10-14T07:51:42.536Z,19.30
2022-10-14T07:54:17.338Z,19.30
2022-10-14T07:56:49.721Z,19.30
2022-10-14T07:59:20.514Z,19.30
2022-10-14T08:01:51.631Z,19.30
2022-10-14T08:04:21.466Z,19.30
2022-10-14T08:06:51.329Z,19.30
2022-10-14T08:09:21.358Z,19.30
2022-10-14T08:11:52.276Z,19.30
2022-10-14T08:14:22.123Z,19.30
2022-10-14T08:16:52.047Z,19.30
2022-10-14T08:19:21.989Z,19.30
2022-10-14T08:21:53.457Z,19.40
2022-10-14T08:24:24.499Z,19.40
2022-10-14T08:26:58.234Z,19.40
2022-10-14T08:29:28.227Z,19.40
2022-10-14T08:31:58.092Z,19.40
2022-10-14T08:34:28.046Z,19.40
2022-10-14T08:36:57.564Z,19.40
2022-10-14T08:39:26.899Z,19.40
2022-10-14T08:42:24.756Z,19.40
2022-10-14T08:44:58.468Z,19.40
2022-10-14T08:47:37.021Z,19.40
2022-10-14T08:50:21.078Z,19.40
2022-10-14T08:52:55.350Z,19.50
2022-10-14T08:55:34.994Z,19.50
2022-10-14T08:58:14.350Z,19.50
2022-10-14T09:00:47.063Z,19.50
2022-10-14T09:03:22.688Z,19.50
2022-10-14T09:05:58.758Z,19.50
2022-10-14T09:08:34.809Z,19.50
2022-10-14T09:11:04.210Z,19.50
2022-10-14T09:13:39.872Z,19.50
2022-10-14T09:16:17.676Z,19.50
2022-10-14T09:18:54.587Z,19.50
2022-10-14T09:21:51.600Z,19.60
2022-10-14T09:24:24.462Z,19.60
2022-10-14T09:26:59.475Z,19.60
2022-10-14T09:29:32.536Z,19.60
2022-10-14T09:32:08.873Z,19.60
2022-10-14T09:34:41.311Z,19.60
2022-10-14T09:37:27.758Z,19.60
2022-10-14T09:40:01.071Z,19.60
2022-10-14T09:42:43.574Z,19.60
2022-10-14T09:45:17.008Z,19.60
2022-10-14T09:47:53.330Z,19.70
2022-10-14T09:50:26.924Z,19.70
2022-10-14T09:53:02.791Z,19.70
2022-10-14T09:55:32.685Z,19.70
2022-10-14T09:58:15.056Z,19.70
2022-10-14T10:00:48.025Z,19.70
2022-10-14T10:03:30.111Z,19.70
2022-10-14T10:06:06.975Z,19.70
2022-10-14T10:08:37.802Z,19.80
2022-10-14T10:11:10.529Z,19.80
2022-10-14T10:13:44.906Z,19.80
2022-10-14T10:16:25.246Z,19.80
2022-10-14T10:18:57.323Z,19.80
2022-10-14T10:21:30.101Z,19.90
2022-10-14T10:24:02.436Z,19.90
2022-10-14T10:26:34.266Z,19.90
2022-10-14T10:29:06.267Z,19.90
2022-10-14T10:31:56.887Z,19.90
2022-10-14T10:35:08.459Z,19.90
2022-10-14T10:37:49.353Z,20.00
2022-10-14T10:40:37.018Z,20.00
2022-10-14T10:43:31.832Z,20.00
2022-10-14T10:46:23.720Z,20.00
2022-10-14T10:49:05.380Z,20.00
2022-10-14T10:51:45.269Z,20.00
2022-10-14T10:54:33.178Z,20.00
2022-10-14T10:57:11.621Z,20.00
2022-10-14T10:59:57.769Z,20.00
2022-10-14T11:03:10.444Z,20.10
2022-10-14T11:05:52.033Z,20.00
2022-10-14T11:09:09.454Z,20.00
2022-10-14T11:12:03.856Z,20.10
2022-10-14T11:15:04.437Z,20.10
2022-10-14T11:17:42.953Z,20.10
2022-10-14T11:20:24.897Z,20.10
2022-10-14T11:23:26.066Z,20.10
2022-10-14T11:26:00.945Z,20.00
2022-10-14T11:28:40.181Z,20.10
2022-10-14T11:31:20.684Z,20.10
2022-10-14T11:34:08.681Z,20.10
2022-10-14T11:36:49.587Z,20.00
2022-10-14T11:39:41.430Z,20.00
2022-10-14T11:42:30.231Z,20.00
2022-10-14T11:45:23.557Z,20.00
2022-10-14T11:48:10.201Z,20.00
2022-10-14T11:50:44.766Z,20.00
2022-10-14T11:53:22.775Z,20.00
2022-10-14T11:56:02.673Z,19.90
2022-10-14T11:58:36.436Z,20.00
2022-10-14T12:01:07.961Z,19.90
2022-10-14T12:03:51.132Z,19.90
2022-10-14T12:06:26.141Z,20.00
2022-10-14T12:09:00.338Z,19.90
2022-10-14T12:11:36.346Z,19.90
2022-10-14T12:14:12.517Z,19.90
2022-10-14T12:16:44.816Z,19.90
2022-10-14T12:19:21.955Z,19.90
2022-10-14T12:21:58.478Z,20.00
2022-10-14T12:24:34.253Z,20.00
2022-10-14T12:27:06.831Z,20.00
2022-10-14T12:29:40.168Z,20.00
2022-10-14T12:32:24.565Z,20.00
2022-10-14T12:34:55.326Z,20.00
2022-10-14T12:37:54.264Z,20.00
2022-10-14T12:40:32.776Z,20.00
2022-10-14T12:43:13.542Z,20.00
2022-10-14T12:46:00.996Z,20.00
2022-10-14T12:48:34.944Z,20.00
2022-10-14T12:51:14.736Z,20.00
2022-10-14T12:53:56.418Z,20.00
2022-10-14T12:56:55.369Z,20.00
2022-10-14T12:59:31.396Z,20.00
2022-10-14T13:02:05.343Z,20.00
2022-10-14T13:04:35.263Z,20.00
2022-10-14T13:07:41.241Z,20.10
2022-10-14T13:10:52.914Z,20.00
2022-10-14T13:13:52.756Z,20.10
2022-10-14T13:17:01.086Z,20.10
2022-10-14T13:19:46.065Z,20.10
2022-10-14T13:22:40.053Z,20.10
2022-10-14T13:25:19.727Z,20.10
2022-10-14T13:28:12.726Z,20.10
2022-10-14T13:30:56.404Z,20.10
2022-10-14T13:33:36.788Z,20.10
2022-10-14T13:36:16.097Z,20.10
2022-10-14T13:38:55.093Z,20.10
2022-10-14T13:41:30.720Z,20.10
2022-10-14T13:44:01.640Z,20.10
2022-10-14T13:46:36.358Z,20.10
2022-10-14T13:49:20.727Z,20.10
2022-10-14T13:51:53.518Z,20.10
2022-10-14T13:54:25.020Z,20.10
2022-10-14T14:02:47.984Z,20.00
2022-10-14T14:05:23.729Z,20.00
2022-10-14T14:11:15.003Z,20.10
2022-10-14T14:13:56.106Z,20.00
2022-10-14T14:16:33.291Z,20.00
2022-10-14T14:19:08.907Z,20.00
2022-10-14T14:21:40.346Z,20.10
2022-10-14T14:24:25.603Z,20.10
2022-10-14T14:26:57.052Z,20.10
2022-10-14T14:29:29.907Z,20.10
2022-10-14T14:32:09.028Z,20.10
2022-10-14T14:34:40.828Z,20.10
2022-10-14T14:40:21.615Z,20.10
2022-10-14T14:42:53.877Z,20.10
2022-10-14T14:45:26.688Z,20.10
2022-10-14T14:47:59.050Z,20.10
2022-10-14T14:50:31.786Z,20.10
2022-10-14T14:53:05.876Z,20.10
2022-10-14T14:55:38.551Z,20.10
2022-10-14T14:58:28.114Z,20.10
2022-10-14T15:00:58.053Z,20.10
2022-10-14T15:03:30.761Z,20.10
2022-10-14T15:06:03.258Z,20.10
2022-10-14T15:08:37.969Z,20.10
2022-10-14T15:11:07.537Z,20.10
2022-10-14T15:13:52.831Z,20.10
2022-10-14T15:16:41.553Z,20.10
2022-10-14T15:19:37.362Z,20.10
2022-10-14T15:22:34.176Z,20.10
2022-10-14T15:25:13.634Z,20.20
2022-10-14T15:27:53.468Z,20.20
2022-10-14T15:30:51.853Z,20.20
2022-10-14T15:33:23.395Z,20.10
2022-10-14T15:35:58.055Z,20.20
2022-10-14T15:38:27.999Z,20.20
2022-10-14T15:40:58.436Z,20.10
2022-10-14T15:43:28.665Z,20.10
2022-10-14T15:46:17.767Z,20.10
2022-10-14T15:48:50.643Z,20.20
2022-10-14T15:51:21.733Z,20.10
2022-10-14T15:53:51.809Z,20.10
2022-10-14T15:56:22.233Z,20.10
2022-10-14T15:58:51.401Z,20.10
2022-10-14T16:01:23.076Z,20.10
2022-10-14T16:03:53.277Z,20.10
2022-10-14T16:06:24.518Z,20.10
2022-10-14T16:08:53.548Z,20.10
2022-10-14T16:11:27.527Z,20.00
2022-10-14T16:13:56.837Z,20.00
2022-10-14T16:16:32.781Z,20.00
2022-10-14T16:19:03.652Z,20.00
2022-10-14T16:21:33.200Z,20.00
2022-10-14T16:24:04.281Z,20.00
2022-10-14T16:26:34.807Z,20.00
2022-10-14T16:29:03.995Z,20.00
2022-10-14T16:31:33.113Z,20.10
2022-10-14T16:34:02.653Z,20.10
2022-10-14T16:36:31.779Z,20.00
2022-10-14T16:39:02.104Z,20.10
2022-10-14T16:41:31.346Z,20.10
2022-10-14T16:44:01.754Z,20.10
2022-10-14T16:46:44.707Z,20.00
2022-10-14T16:49:14.294Z,20.00
2022-10-14T16:51:44.198Z,20.10
2022-10-14T16:54:13.493Z,20.10
2022-10-14T16:56:55.036Z,20.10
2022-10-14T16:59:26.497Z,20.10
2022-10-14T17:01:56.646Z,20.10
2022-10-14T17:04:26.855Z,20.10
2022-10-14T17:07:07.368Z,20.10
2022-10-14T17:09:38.785Z,20.10
2022-10-14T17:12:13.923Z,20.10
2022-10-14T17:14:44.637Z,20.10
2022-10-14T17:17:13.958Z,20.10
2022-10-14T17:19:43.081Z,20.00
2022-10-14T17:22:13.306Z,20.00
2022-10-14T17:24:42.315Z,20.00
2022-10-14T17:27:11.752Z,20.00
2022-10-14T17:29:40.781Z,20.00
2022-10-14T17:32:11.195Z,20.00
2022-10-14T17:34:40.171Z,19.90
2022-10-14T17:39:43.364Z,19.90
2022-10-14T17:42:12.431Z,19.90
2022-10-14T17:44:43.717Z,19.90
2022-10-14T17:47:14.482Z,19.90
2022-10-14T17:49:43.510Z,19.90
2022-10-14T17:52:12.756Z,19.90
2022-10-14T17:54:41.837Z,19.90
2022-10-14T17:57:10.869Z,19.90
2022-10-14T17:59:39.906Z,19.90
2022-10-14T18:02:11.151Z,19.90
2022-10-14T18:04:41.682Z,19.90
2022-10-14T18:07:12.073Z,19.90
2022-10-14T18:09:41.018Z,20.00
2022-10-14T18:12:10.499Z,20.00
2022-10-14T18:14:40.687Z,20.00
2022-10-14T18:17:12.463Z,20.00
2022-10-14T18:19:46.105Z,20.00
2022-10-14T18:22:18.888Z,20.00
2022-10-14T18:24:48.494Z,20.10
2022-10-14T18:27:17.508Z,20.10
2022-10-14T18:29:46.562Z,20.10
2022-10-14T18:32:15.567Z,20.10
2022-10-14T18:34:46.293Z,20.10
2022-10-14T18:37:15.327Z,20.10
2022-10-14T18:39:44.703Z,20.10
2022-10-14T18:42:17.117Z,20.10
2022-10-14T18:44:49.040Z,20.10
2022-10-14T18:47:18.093Z,20.10
2022-10-14T18:49:49.721Z,20.10
2022-10-14T18:52:20.847Z,20.10
2022-10-14T18:54:50.049Z,20.10
2022-10-14T18:57:19.076Z,20.10
2022-10-14T18:59:48.409Z,20.10
2022-10-14T19:02:17.885Z,20.00
2022-10-14T19:04:48.444Z,20.00
2022-10-14T19:07:17.446Z,20.00
2022-10-14T19:09:46.491Z,20.00
2022-10-14T19:12:29.649Z,20.00
2022-10-14T19:14:58.630Z,20.00
2022-10-14T19:17:27.697Z,20.00
2022-10-14T19:20:00.037Z,19.90
2022-10-14T19:22:29.077Z,19.90
2022-10-14T19:24:58.036Z,20.00
2022-10-14T19:27:27.035Z,19.90
2022-10-14T19:29:56.113Z,19.90
2022-10-14T19:32:25.104Z,19.90
2022-10-14T19:34:54.133Z,19.90
2022-10-14T19:37:25.003Z,19.90
2022-10-14T19:39:54.328Z,19.90
2022-10-14T19:42:23.316Z,19.90
2022-10-14T19:44:52.336Z,19.90
2022-10-14T19:47:21.591Z,19.90
2022-10-14T19:49:50.861Z,19.90
2022-10-14T19:52:19.876Z,19.90
2022-10-14T19:54:50.255Z,19.90
2022-10-14T19:57:19.321Z,19.90
2022-10-14T19:59:48.383Z,19.90
2022-10-14T20:02:17.360Z,19.90
2022-10-14T20:05:32.864Z,19.90
2022-10-14T20:08:20.512Z,19.90
2022-10-14T20:11:12.565Z,19.90
2022-10-14T20:14:00.624Z,19.90
2022-10-14T20:16:52.183Z,19.80
2022-10-14T20:19:43.215Z,19.80
2022-10-14T20:22:30.625Z,19.80
2022-10-14T20:25:18.392Z,19.80
2022-10-14T20:28:07.066Z,19.80
2022-10-14T20:30:54.669Z,19.80
2022-10-14T20:33:42.144Z,19.80
2022-10-14T20:36:29.879Z,19.70
2022-10-14T20:39:17.598Z,19.70
2022-10-14T20:42:08.048Z,19.70
2022-10-14T20:44:56.709Z,19.70
2022-10-14T20:47:44.195Z,19.70
2022-10-14T20:50:31.616Z,19.80
2022-10-14T20:53:18.895Z,19.70
2022-10-14T20:56:09.132Z,19.70
2022-10-14T20:58:57.258Z,19.70
2022-10-14T21:01:46.450Z,19.80
2022-10-14T21:04:33.871Z,19.80
2022-10-14T21:07:22.805Z,19.80
2022-10-14T21:10:10.835Z,19.80
2022-10-14T21:12:58.253Z,19.80
2022-10-14T21:15:45.628Z,19.70
2022-10-14T21:18:34.290Z,19.80
2022-10-14T21:21:22.368Z,19.80
2022-10-14T21:24:13.252Z,19.70
2022-10-14T21:27:00.729Z,19.80
2022-10-14T21:29:50.154Z,19.70
2022-10-14T21:32:37.682Z,19.70
2022-10-14T21:35:27.227Z,19.70
2022-10-14T21:38:14.704Z,19.70
2022-10-14T21:41:03.694Z,19.70
2022-10-14T21:43:51.301Z,19.70
2022-10-14T21:46:38.800Z,19.70
2022-10-14T21:49:26.314Z,19.70
2022-10-14T21:52:16.871Z,19.70
2022-10-14T21:55:04.175Z,19.70
2022-10-14T21:57:52.469Z,19.70
2022-10-14T22:00:39.678Z,19.60
2022-10-14T22:03:27.097Z,19.60
2022-10-14T22:06:17.421Z,19.60
2022-10-14T22:09:08.855Z,19.60
2022-10-14T22:11:56.526Z,19.60
2022-10-14T22:14:43.798Z,19.60
2022-10-14T22:17:31.159Z,19.60
2022-10-14T22:20:18.812Z,19.60
2022-10-14T22:23:06.023Z,19.60
2022-10-14T22:25:54.689Z,19.60
2022-10-14T22:28:42.604Z,19.60
2022-10-14T22:31:32.920Z,19.60
2022-10-14T22:34:20.518Z,19.60
2022-10-14T22:37:07.680Z,19.60
2022-10-14T22:39:55.255Z,19.60
2022-10-14T22:42:46.584Z,19.60
2022-10-14T22:45:35.351Z,19.60
2022-10-14T22:48:22.807Z,19.60
2022-10-14T22:51:12.416Z,19.60
2022-10-14T22:54:00.599Z,19.70
2022-10-14T22:56:47.952Z,19.60
2022-10-14T22:59:36.742Z,19.60
2022-10-14T23:02:24.405Z,19.60
2022-10-14T23:05:12.227Z,19.60
2022-10-14T23:07:59.596Z,19.70
2022-10-14T23:10:46.992Z,19.60
2022-10-14T23:13:35.079Z,19.60
2022-10-14T23:16:26.376Z,19.60
2022-10-14T23:19:13.678Z,19.60
2022-10-14T23:22:01.028Z,19.70
2022-10-14T23:24:48.141Z,19.70
2022-10-14T23:27:36.335Z,19.60
2022-10-14T23:30:23.709Z,19.70
2022-10-14T23:33:12.651Z,19.70
2022-10-14T23:36:05.286Z,19.70
2022-10-14T23:38:53.465Z,19.70
2022-10-14T23:41:40.833Z,19.70
2022-10-14T23:44:28.293Z,19.70
2022-10-14T23:47:15.789Z,19.70
2022-10-14T23:50:04.710Z,19.70
2022-10-14T23:52:52.077Z,19.70
2022-10-14T23:55:39.752Z,19.70
2022-10-14T23:58:29.754Z,19.70
